sensor_id;sensor_type;location;lat;lon;timestamp;pressure;altitude;pressure_sealevel;temperature;humidity
3590;BME280;1809;48.470;9.226;2023-04-24T00:01:08;-16511.13;;;12.28;100.00
3590;BME280;1809;48.470;9.226;2023-04-24T00:03:33;-16512.13;;;12.31;100.00
3590;BME280;1809;48.470;9.226;2023-04-24T00:05:59;-16513.09;;;12.35;100.00
3590;BME280;1809;48.470;9.226;2023-04-24T00:08:26;-16511.13;;;12.28;100.00
3590;BME280;1809;48.470;9.226;2023-04-24T00:10:51;-16512.81;;;12.34;100.00
3590;BME280;1809;48.470;9.226;2023-04-24T00:13:18;-16514.78;;;12.41;100.00
3590;BME280;1809;48.470;9.226;2023-04-24T00:15:43;-16514.22;;;12.39;100.00
3590;BME280;1809;48.470;9.226;2023-04-24T00:18:08;-16513.66;;;12.37;100.00
3590;BME280;1809;48.470;9.226;2023-04-24T00:20:34;-16512.69;;;12.33;100.00
3590;BME280;1809;48.470;9.226;2023-04-24T00:23:00;-16511.97;;;12.31;100.00
3590;BME280;1809;48.470;9.226;2023-04-24T00:25:26;-16510.00;;;12.24;100.00
3590;BME280;1809;48.470;9.226;2023-04-24T00:27:51;-16510.56;;;12.26;100.00
3590;BME280;1809;48.470;9.226;2023-04-24T00:30:16;-16512.53;;;12.33;100.00
3590;BME280;1809;48.470;9.226;2023-04-24T00:32:42;-16513.94;;;12.38;100.00
3590;BME280;1809;48.470;9.226;2023-04-24T00:35:07;-16513.38;;;12.36;100.00
3590;BME280;1809;48.470;9.226;2023-04-24T00:37:33;-16512.81;;;12.34;100.00
3590;BME280;1809;48.470;9.226;2023-04-24T00:39:58;-16512.69;;;12.33;100.00
3590;BME280;1809;48.470;9.226;2023-04-24T00:42:24;-16513.66;;;12.37;100.00
3590;BME280;1809;48.470;9.226;2023-04-24T00:44:49;-16513.25;;;12.35;100.00
3590;BME280;1809;48.470;9.226;2023-04-24T00:47:15;-16513.38;;;12.36;100.00
3590;BME280;1809;48.470;9.226;2023-04-24T00:49:41;-16514.50;;;12.40;100.00
3590;BME280;1809;48.470;9.226;2023-04-24T00:52:06;-16510.56;;;12.26;100.00
3590;BME280;1809;48.470;9.226;2023-04-24T00:54:34;-16467.16;;;12.26;100.00
3590;BME280;1809;48.470;9.226;2023-04-24T00:57:01;-13489.41;;;12.25;100.00
3590;BME280;1809;48.470;9.226;2023-04-24T00:59:27;-5543.47;;;12.12;100.00
3590;BME280;1809;48.470;9.226;2023-04-24T01:01:52;5459.56;;;12.07;100.00
3590;BME280;1809;48.470;9.226;2023-04-24T01:04:18;13149.03;;;12.03;100.00
3590;BME280;1809;48.470;9.226;2023-04-24T01:06:45;20859.19;;;12.11;100.00
3590;BME280;1809;48.470;9.226;2023-04-24T01:09:11;23208.13;;;12.09;100.00
3590;BME280;1809;48.470;9.226;2023-04-24T01:11:37;24889.78;;;12.15;100.00
3590;BME280;1809;48.470;9.226;2023-04-24T01:14:03;37348.97;;;12.23;100.00
3590;BME280;1809;48.470;9.226;2023-04-24T01:16:28;53225.09;;;12.07;100.00
3590;BME280;1809;48.470;9.226;2023-04-24T01:18:54;65780.66;;;12.05;100.00
3590;BME280;1809;48.470;9.226;2023-04-24T01:21:20;79393.19;;;11.93;100.00
3590;BME280;1809;48.470;9.226;2023-04-24T01:23:46;85867.38;;;11.80;100.00
3590;BME280;1809;48.470;9.226;2023-04-24T01:26:13;88935.56;;;11.73;100.00
3590;BME280;1809;48.470;9.226;2023-04-24T01:28:39;94397.28;;;11.62;100.00
3590;BME280;1809;48.470;9.226;2023-04-24T01:31:05;100560.22;;;11.56;100.00
3590;BME280;1809;48.470;9.226;2023-04-24T01:33:31;104334.13;;;11.54;100.00
3590;BME280;1809;48.470;9.226;2023-04-24T01:35:56;108099.41;;;11.45;100.00
3590;BME280;1809;48.470;9.226;2023-04-24T01:38:22;108458.47;;;11.54;100.00
3590;BME280;1809;48.470;9.226;2023-04-24T01:40:47;109484.22;;;11.50;100.00
3590;BME280;1809;48.470;9.226;2023-04-24T01:43:15;109133.00;;;11.46;100.00
3590;BME280;1809;48.470;9.226;2023-04-24T01:45:40;109471.59;;;11.43;100.00
3590;BME280;1809;48.470;9.226;2023-04-24T01:48:06;110847.91;;;11.43;100.00
3590;BME280;1809;48.470;9.226;2023-04-24T01:50:31;111860.28;;;11.32;100.00
3590;BME280;1809;48.470;9.226;2023-04-24T01:52:57;112204.47;;;11.32;100.00
3590;BME280;1809;48.470;9.226;2023-04-24T01:55:22;114600.66;;;11.24;100.00
3590;BME280;1809;48.470;9.226;2023-04-24T01:57:48;114257.22;;;11.25;100.00
3590;BME280;1809;48.470;9.226;2023-04-24T02:00:14;114250.63;;;11.21;100.00
3590;BME280;1809;48.470;9.226;2023-04-24T02:02:40;114245.94;;;11.19;100.00
3590;BME280;1809;48.470;9.226;2023-04-24T02:05:06;116321.25;;;11.23;100.00
3590;BME280;1809;48.470;9.226;2023-04-24T02:07:32;116659.09;;;11.20;100.00
3590;BME280;1809;48.470;9.226;2023-04-24T02:09:58;116327.97;;;11.27;100.00
3590;BME280;1809;48.470;9.226;2023-04-24T02:12:23;117359.94;;;11.26;100.00
3590;BME280;1809;48.470;9.226;2023-04-24T02:14:48;118376.63;;;11.17;100.00
3590;BME280;1809;48.470;9.226;2023-04-24T02:17:14;120780.63;;;11.12;100.00
3590;BME280;1809;48.470;9.226;2023-04-24T02:19:40;124209.25;;;11.01;100.00
3590;BME280;1809;48.470;9.226;2023-04-24T02:22:06;130413.63;;;10.94;100.00
3590;BME280;1809;48.470;9.226;2023-04-24T02:24:31;133155.69;;;10.82;100.00
3590;BME280;1809;48.470;9.226;2023-04-24T02:26:56;135560.53;;;10.74;100.00
3590;BME280;1809;48.470;9.226;2023-04-24T02:29:23;139007.91;;;10.67;100.00
3590;BME280;1809;48.470;9.226;2023-04-24T02:31:48;141067.53;;;10.58;100.00
3590;BME280;1809;48.470;9.226;2023-04-24T02:34:13;142770.34;;;10.45;100.00
3590;BME280;1809;48.470;9.226;2023-04-24T02:36:39;144480.41;;;10.35;100.00
3590;BME280;1809;48.470;9.226;2023-04-24T02:39:04;146224.69;;;10.39;100.00
3590;BME280;1809;48.470;9.226;2023-04-24T02:41:30;146900.53;;;10.32;100.00
3590;BME280;1809;48.470;9.226;2023-04-24T02:43:58;147588.56;;;10.29;100.00
3590;BME280;1809;48.470;9.226;2023-04-24T02:46:23;147928.34;;;10.26;100.00
3590;BME280;1809;48.470;9.226;2023-04-24T02:48:49;148607.84;;;10.20;100.00
3590;BME280;1809;48.470;9.226;2023-04-24T02:51:14;149654.38;;;10.22;100.00
3590;BME280;1809;48.470;9.226;2023-04-24T02:53:39;150346.50;;;10.21;100.00
3590;BME280;1809;48.470;9.226;2023-04-24T02:56:05;150676.34;;;10.14;100.00
3590;BME280;1809;48.470;9.226;2023-04-24T02:58:30;151011.06;;;10.09;100.00
3590;BME280;1809;48.470;9.226;2023-04-24T03:00:55;152053.16;;;10.09;100.00
3590;BME280;1809;48.470;9.226;2023-04-24T03:03:21;152743.00;;;10.07;100.00
3590;BME280;1809;48.470;9.226;2023-04-24T03:05:47;153093.06;;;10.08;100.00
3590;BME280;1809;48.470;9.226;2023-04-24T03:08:12;153450.75;;;10.12;100.00
3590;BME280;1809;48.470;9.226;2023-04-24T03:10:37;153121.03;;;10.19;100.00
3590;BME280;1809;48.470;9.226;2023-04-24T03:13:03;152770.97;;;10.18;100.00
3590;BME280;1809;48.470;9.226;2023-04-24T03:15:28;152433.53;;;10.22;100.00
3590;BME280;1809;48.470;9.226;2023-04-24T03:17:54;151746.09;;;10.25;100.00
3590;BME280;1809;48.470;9.226;2023-04-24T03:20:20;151391.09;;;10.22;100.00
3590;BME280;1809;48.470;9.226;2023-04-24T03:22:45;151062.50;;;10.30;100.00
3590;BME280;1809;48.470;9.226;2023-04-24T03:25:11;150014.13;;;10.27;100.00
3590;BME280;1809;48.470;9.226;2023-04-24T03:27:36;149692.88;;;10.38;100.00
3590;BME280;1809;48.470;9.226;2023-04-24T03:30:02;150716.34;;;10.30;100.00
3590;BME280;1809;48.470;9.226;2023-04-24T03:32:28;152078.47;;;10.19;100.00
3590;BME280;1809;48.470;9.226;2023-04-24T03:34:53;153774.13;;;10.02;100.00
3590;BME280;1809;48.470;9.226;2023-04-24T03:37:18;156193.47;;;9.97;100.00
3590;BME280;1809;48.470;9.226;2023-04-24T03:39:44;157216.00;;;9.89;100.00
3590;BME280;1809;48.470;9.226;2023-04-24T03:42:09;157192.59;;;9.79;100.00
3590;BME280;1809;48.470;9.226;2023-04-24T03:44:35;157182.13;;;9.74;100.00
3590;BME280;1809;48.470;9.226;2023-04-24T03:47:01;157161.25;;;9.66;100.00
3590;BME280;1809;48.470;9.226;2023-04-24T03:49:26;157150.81;;;9.62;100.00
3590;BME280;1809;48.470;9.226;2023-04-24T03:51:51;157140.38;;;9.58;100.00
3590;BME280;1809;48.470;9.226;2023-04-24T03:54:18;157145.59;;;9.60;100.00
3590;BME280;1809;48.470;9.226;2023-04-24T03:56:43;157145.59;;;9.60;100.00
3590;BME280;1809;48.470;9.226;2023-04-24T03:59:09;157135.13;;;9.56;100.00
3590;BME280;1809;48.470;9.226;2023-04-24T04:01:34;157150.81;;;9.62;100.00
3590;BME280;1809;48.470;9.226;2023-04-24T04:04:03;157122.09;;;9.51;100.00
3590;BME280;1809;48.470;9.226;2023-04-24T04:06:28;157124.72;;;9.52;100.00
3590;BME280;1809;48.470;9.226;2023-04-24T04:08:54;157149.53;;;9.62;100.00
3590;BME280;1809;48.470;9.226;2023-04-24T04:11:19;157119.47;;;9.50;100.00
3590;BME280;1809;48.470;9.226;2023-04-24T04:13:45;157098.59;;;9.42;100.00
3590;BME280;1809;48.470;9.226;2023-04-24T04:16:12;157099.91;;;9.43;100.00
3590;BME280;1809;48.470;9.226;2023-04-24T04:18:38;157073.78;;;9.33;100.00
3590;BME280;1809;48.470;9.226;2023-04-24T04:21:03;157062.00;;;9.28;100.00
3590;BME280;1809;48.470;9.226;2023-04-24T04:23:28;157081.63;;;9.36;100.00
3590;BME280;1809;48.470;9.226;2023-04-24T04:25:54;157090.75;;;9.39;100.00
3590;BME280;1809;48.470;9.226;2023-04-24T04:28:20;157098.59;;;9.42;100.00
3590;BME280;1809;48.470;9.226;2023-04-24T04:30:46;157115.56;;;9.49;100.00
3590;BME280;1809;48.470;9.226;2023-04-24T04:33:12;157099.91;;;9.43;100.00
3590;BME280;1809;48.470;9.226;2023-04-24T04:35:38;157107.75;;;9.46;100.00
3590;BME280;1809;48.470;9.226;2023-04-24T04:38:03;157137.75;;;9.57;100.00
3590;BME280;1809;48.470;9.226;2023-04-24T04:40:29;157124.72;;;9.52;100.00
3590;BME280;1809;48.470;9.226;2023-04-24T04:42:55;157132.56;;;9.55;100.00
3590;BME280;1809;48.470;9.226;2023-04-24T04:45:20;157131.25;;;9.55;100.00
3590;BME280;1809;48.470;9.226;2023-04-24T04:47:46;157132.56;;;9.55;100.00
3590;BME280;1809;48.470;9.226;2023-04-24T04:50:12;157158.63;;;9.65;100.00
3590;BME280;1809;48.470;9.226;2023-04-24T04:52:37;157142.97;;;9.59;100.00
3590;BME280;1809;48.470;9.226;2023-04-24T04:55:03;157169.09;;;9.69;100.00
3590;BME280;1809;48.470;9.226;2023-04-24T04:57:29;157149.53;;;9.62;100.00
3590;BME280;1809;48.470;9.226;2023-04-24T04:59:55;157140.38;;;9.58;100.00
3590;BME280;1809;48.470;9.226;2023-04-24T05:02:20;157095.97;;;9.41;100.00
3590;BME280;1809;48.470;9.226;2023-04-24T05:04:45;157075.09;;;9.33;100.00
3590;BME280;1809;48.470;9.226;2023-04-24T05:07:11;157077.69;;;9.34;100.00
3590;BME280;1809;48.470;9.226;2023-04-24T05:09:36;157064.66;;;9.29;100.00
3590;BME280;1809;48.470;9.226;2023-04-24T05:12:02;157033.31;;;9.17;100.00
3590;BME280;1809;48.470;9.226;2023-04-24T05:14:28;157007.22;;;9.07;100.00
3590;BME280;1809;48.470;9.226;2023-04-24T05:16:53;156965.44;;;8.91;100.00
3590;BME280;1809;48.470;9.226;2023-04-24T05:19:18;156953.72;;;8.86;100.00
3590;BME280;1809;48.470;9.226;2023-04-24T05:21:44;156948.47;;;8.84;100.00
3590;BME280;1809;48.470;9.226;2023-04-24T05:24:09;156957.59;;;8.88;100.00
3590;BME280;1809;48.470;9.226;2023-04-24T05:26:34;156941.94;;;8.82;100.00
3590;BME280;1809;48.470;9.226;2023-04-24T05:29:01;156957.59;;;8.88;100.00
3590;BME280;1809;48.470;9.226;2023-04-24T05:31:26;156934.13;;;8.79;100.00
3590;BME280;1809;48.470;9.226;2023-04-24T05:33:51;156934.13;;;8.79;100.00
3590;BME280;1809;48.470;9.226;2023-04-24T05:36:17;156951.09;;;8.85;100.00
3590;BME280;1809;48.470;9.226;2023-04-24T05:38:42;156921.09;;;8.74;100.00
3590;BME280;1809;48.470;9.226;2023-04-24T05:41:07;156900.19;;;8.65;100.00
3590;BME280;1809;48.470;9.226;2023-04-24T05:43:33;156889.78;;;8.61;100.00
3590;BME280;1809;48.470;9.226;2023-04-24T05:45:58;156868.88;;;8.53;100.00
3590;BME280;1809;48.470;9.226;2023-04-24T05:48:23;156868.88;;;8.53;100.00
3590;BME280;1809;48.470;9.226;2023-04-24T05:50:49;156858.47;;;8.49;100.00
3590;BME280;1809;48.470;9.226;2023-04-24T05:53:14;156875.44;;;8.56;100.00
3590;BME280;1809;48.470;9.226;2023-04-24T05:55:40;156906.75;;;8.68;100.00
3590;BME280;1809;48.470;9.226;2023-04-24T05:58:05;156884.53;;;8.59;100.00
3590;BME280;1809;48.470;9.226;2023-04-24T06:00:31;156896.28;;;8.64;100.00
3590;BME280;1809;48.470;9.226;2023-04-24T06:02:56;156931.53;;;8.78;100.00
3590;BME280;1809;48.470;9.226;2023-04-24T06:05:22;156960.22;;;8.89;100.00
3590;BME280;1809;48.470;9.226;2023-04-24T06:07:48;156991.53;;;9.01;100.00
3590;BME280;1809;48.470;9.226;2023-04-24T06:10:13;157033.31;;;9.17;100.00
3590;BME280;1809;48.470;9.226;2023-04-24T06:12:39;157039.84;;;9.19;100.00
3590;BME280;1809;48.470;9.226;2023-04-24T06:15:05;157129.94;;;9.54;100.00
3590;BME280;1809;48.470;9.226;2023-04-24T06:17:30;157324.59;;;10.30;100.00
3590;BME280;1809;48.470;9.226;2023-04-24T06:19:56;157633.06;;;11.49;100.00
3590;BME280;1809;48.470;9.226;2023-04-24T06:22:21;155036.69;;;12.25;100.00
3590;BME280;1809;48.470;9.226;2023-04-24T06:24:46;140769.66;;;12.30;100.00
3590;BME280;1809;48.470;9.226;2023-04-24T06:27:13;124077.72;;;12.06;100.00
3590;BME280;1809;48.470;9.226;2023-04-24T06:29:38;111633.59;;;11.97;100.00
3590;BME280;1809;48.470;9.226;2023-04-24T06:32:04;99233.28;;;11.84;100.00
3590;BME280;1809;48.470;9.226;2023-04-24T06:34:29;95801.06;;;11.83;100.00
3590;BME280;1809;48.470;9.226;2023-04-24T06:36:56;88314.88;;;12.18;100.00
3590;BME280;1809;48.470;9.226;2023-04-24T06:39:21;85995.22;;;12.72;100.00
3590;BME280;1809;48.470;9.226;2023-04-24T06:41:47;88523.75;;;13.64;100.00
3590;BME280;1809;48.470;9.226;2023-04-24T06:44:12;60568.13;;;14.35;100.00
3590;BME280;1809;48.470;9.226;2023-04-24T06:46:39;-5752.78;;;14.48;100.00
3590;BME280;1809;48.470;9.226;2023-04-24T06:49:05;-3141.28;;;14.88;100.00
3590;BME280;1809;48.470;9.226;2023-04-24T06:51:30;-16587.72;;;15.03;100.00
3590;BME280;1809;48.470;9.226;2023-04-24T06:53:58;-16584.91;;;14.93;100.00
3590;BME280;1809;48.470;9.226;2023-04-24T06:56:24;-16588.84;;;15.07;100.00
3590;BME280;1809;48.470;9.226;2023-04-24T06:58:50;-16592.22;;;15.20;100.00
3590;BME280;1809;48.470;9.226;2023-04-24T07:01:16;-16566.00;;;14.25;100.00
3590;BME280;1809;48.470;9.226;2023-04-24T07:03:41;-16544.41;;;13.48;100.00
3590;BME280;1809;48.470;9.226;2023-04-24T07:06:07;-16536.13;;;13.18;100.00
3590;BME280;1809;48.470;9.226;2023-04-24T07:08:32;-10510.66;;;13.76;100.00
3590;BME280;1809;48.470;9.226;2023-04-24T07:10:58;-2221.53;;;13.90;100.00
3590;BME280;1809;48.470;9.226;2023-04-24T07:13:24;-16246.22;;;13.66;100.00
3590;BME280;1809;48.470;9.226;2023-04-24T07:15:49;787.34;;;13.13;100.00
3590;BME280;1809;48.470;9.226;2023-04-24T07:18:16;29951.41;;;12.53;100.00
3590;BME280;1809;48.470;9.226;2023-04-24T07:20:41;55641.56;;;12.57;100.00
3590;BME280;1809;48.470;9.226;2023-04-24T07:23:07;63449.72;;;12.52;100.00
3590;BME280;1809;48.470;9.226;2023-04-24T07:25:32;64119.50;;;12.42;100.00
3590;BME280;1809;48.470;9.226;2023-04-24T07:27:58;59004.66;;;12.23;100.00
3590;BME280;1809;48.470;9.226;2023-04-24T07:30:23;68482.97;;;11.88;100.00
3590;BME280;1809;48.470;9.226;2023-04-24T07:32:49;80009.19;;;11.41;100.00
3590;BME280;1809;48.470;9.226;2023-04-24T07:35:14;88489.03;;;11.01;100.00
3590;BME280;1809;48.470;9.226;2023-04-24T07:37:39;99065.66;;;10.80;100.00
3590;BME280;1809;48.470;9.226;2023-04-24T07:40:05;107262.53;;;10.60;100.00
3590;BME280;1809;48.470;9.226;2023-04-24T07:42:31;115497.94;;;10.52;100.00
3590;BME280;1809;48.470;9.226;2023-04-24T07:44:56;120681.13;;;10.61;100.00
3590;BME280;1809;48.470;9.226;2023-04-24T07:47:22;119699.59;;;10.88;100.00
3590;BME280;1809;48.470;9.226;2023-04-24T07:49:47;102515.63;;;10.94;100.00
3590;BME280;1809;48.470;9.226;2023-04-24T07:52:12;91587.53;;;11.15;100.00
3590;BME280;1809;48.470;9.226;2023-04-24T07:54:38;83070.19;;;11.33;100.00
3590;BME280;1809;48.470;9.226;2023-04-24T07:57:03;58242.13;;;11.34;100.00
3590;BME280;1809;48.470;9.226;2023-04-24T07:59:29;9124.84;;;11.30;100.00
3590;BME280;1809;48.470;9.226;2023-04-24T08:01:54;-16487.28;;;11.42;100.00
3590;BME280;1809;48.470;9.226;2023-04-24T08:04:20;-16493.16;;;11.63;100.00
3590;BME280;1809;48.470;9.226;2023-04-24T08:06:47;-16500.75;;;11.91;100.00
3590;BME280;1809;48.470;9.226;2023-04-24T08:09:13;-16505.53;;;12.08;100.00
3590;BME280;1809;48.470;9.226;2023-04-24T08:11:38;-16510.72;;;12.26;100.00
3590;BME280;1809;48.470;9.226;2023-04-24T08:14:03;-16517.59;;;12.51;100.00
3590;BME280;1809;48.470;9.226;2023-04-24T08:16:29;-16520.41;;;12.61;100.00
3590;BME280;1809;48.470;9.226;2023-04-24T08:18:54;-16520.41;;;12.61;100.00
3590;BME280;1809;48.470;9.226;2023-04-24T08:21:19;-16533.88;;;13.10;100.00
3590;BME280;1809;48.470;9.226;2023-04-24T08:23:45;-16545.50;;;13.52;100.00
3590;BME280;1809;48.470;9.226;2023-04-24T08:26:11;-16543.97;;;13.46;100.00
3590;BME280;1809;48.470;9.226;2023-04-24T08:28:37;-16539.75;;;13.31;100.00
3590;BME280;1809;48.470;9.226;2023-04-24T08:31:03;-16546.50;;;13.55;100.00
3590;BME280;1809;48.470;9.226;2023-04-24T08:33:28;-16526.72;;;12.84;100.00
3590;BME280;1809;48.470;9.226;2023-04-24T08:36:02;-16506.66;;;12.12;100.00
3590;BME280;1809;48.470;9.226;2023-04-24T08:38:28;-16497.25;;;11.78;100.00
3590;BME280;1809;48.470;9.226;2023-04-24T08:40:54;-16495.13;;;11.70;100.00
3590;BME280;1809;48.470;9.226;2023-04-24T08:43:22;-16499.06;;;11.84;100.00
3590;BME280;1809;48.470;9.226;2023-04-24T08:45:48;-16499.34;;;11.85;100.00
3590;BME280;1809;48.470;9.226;2023-04-24T08:48:14;-16495.28;;;11.71;100.00
3590;BME280;1809;48.470;9.226;2023-04-24T08:50:40;-16499.78;;;11.87;100.00
3590;BME280;1809;48.470;9.226;2023-04-24T08:53:08;-16504.69;;;12.05;100.00
3590;BME280;1809;48.470;9.226;2023-04-24T08:55:33;-16501.31;;;11.93;100.00
3590;BME280;1809;48.470;9.226;2023-04-24T08:58:00;-16504.41;;;12.04;100.00
3590;BME280;1809;48.470;9.226;2023-04-24T09:00:26;-16509.75;;;12.23;100.00
3590;BME280;1809;48.470;9.226;2023-04-24T09:02:53;-16510.28;;;12.25;100.00
3590;BME280;1809;48.470;9.226;2023-04-24T09:05:21;-16511.97;;;12.31;100.00
3590;BME280;1809;48.470;9.226;2023-04-24T09:07:49;-16510.00;;;12.24;100.00
3590;BME280;1809;48.470;9.226;2023-04-24T09:10:18;-16510.72;;;12.26;100.00
3590;BME280;1809;48.470;9.226;2023-04-24T09:12:44;-16510.84;;;12.27;100.00
3590;BME280;1809;48.470;9.226;2023-04-24T09:15:10;-16508.63;;;12.19;100.00
3590;BME280;1809;48.470;9.226;2023-04-24T09:17:36;-16507.50;;;12.15;100.00
3590;BME280;1809;48.470;9.226;2023-04-24T09:20:02;-16503.84;;;12.02;100.00
3590;BME280;1809;48.470;9.226;2023-04-24T09:22:30;-16508.63;;;12.19;100.00
3590;BME280;1809;48.470;9.226;2023-04-24T09:25:03;-16520.41;;;12.61;100.00
3590;BME280;1809;48.470;9.226;2023-04-24T09:27:31;-16523.22;;;12.71;100.00
3590;BME280;1809;48.470;9.226;2023-04-24T09:29:57;-16528.53;;;12.90;100.00
3590;BME280;1809;48.470;9.226;2023-04-24T09:32:23;-16517.03;;;12.49;100.00
3590;BME280;1809;48.470;9.226;2023-04-24T09:35:08;-16517.31;;;12.50;100.00
3590;BME280;1809;48.470;9.226;2023-04-24T09:37:40;-16510.28;;;12.25;100.00
3590;BME280;1809;48.470;9.226;2023-04-24T09:40:17;-16499.91;;;11.88;100.00
3590;BME280;1809;48.470;9.226;2023-04-24T09:42:56;-16502.84;;;11.98;100.00
3590;BME280;1809;48.470;9.226;2023-04-24T09:45:36;-16499.63;;;11.86;100.00
3590;BME280;1809;48.470;9.226;2023-04-24T09:48:02;-16495.84;;;11.73;100.00
3590;BME280;1809;48.470;9.226;2023-04-24T09:50:30;-16497.38;;;11.78;100.00
3590;BME280;1809;48.470;9.226;2023-04-24T09:53:04;-16505.38;;;12.07;100.00
3590;BME280;1809;48.470;9.226;2023-04-24T09:55:29;-16507.06;;;12.13;100.00
3590;BME280;1809;48.470;9.226;2023-04-24T09:57:57;-16514.50;;;12.40;100.00
3590;BME280;1809;48.470;9.226;2023-04-24T10:00:32;-16520.41;;;12.61;100.00
3590;BME280;1809;48.470;9.226;2023-04-24T10:03:02;-16526.72;;;12.84;100.00
3590;BME280;1809;48.470;9.226;2023-04-24T10:05:37;-16530.66;;;12.98;100.00
3590;BME280;1809;48.470;9.226;2023-04-24T10:08:10;-16525.72;;;12.80;100.00
3590;BME280;1809;48.470;9.226;2023-04-24T10:10:38;-16532.75;;;13.06;100.00
3590;BME280;1809;48.470;9.226;2023-04-24T10:13:04;-16547.06;;;13.57;100.00
3590;BME280;1809;48.470;9.226;2023-04-24T10:15:30;-16555.06;;;13.86;100.00
3590;BME280;1809;48.470;9.226;2023-04-24T10:17:57;-16551.97;;;13.75;100.00
3590;BME280;1809;48.470;9.226;2023-04-24T10:20:25;-16556.59;;;13.91;100.00
3590;BME280;1809;48.470;9.226;2023-04-24T10:22:52;-16566.28;;;14.26;100.00
3590;BME280;1809;48.470;9.226;2023-04-24T10:25:20;-16575.25;;;14.59;100.00
3590;BME280;1809;48.470;9.226;2023-04-24T10:27:46;-16570.63;;;14.42;100.00
3590;BME280;1809;48.470;9.226;2023-04-24T10:30:12;-16561.78;;;14.10;100.00
3590;BME280;1809;48.470;9.226;2023-04-24T10:32:38;-16566.56;;;14.27;100.00
3590;BME280;1809;48.470;9.226;2023-04-24T10:35:06;-16576.38;;;14.63;100.00
3590;BME280;1809;48.470;9.226;2023-04-24T10:37:37;-16586.88;;;15.00;100.00
3590;BME280;1809;48.470;9.226;2023-04-24T10:40:03;-16584.09;;;14.90;100.00
3590;BME280;1809;48.470;9.226;2023-04-24T10:42:29;-16577.22;;;14.66;100.00
3590;BME280;1809;48.470;9.226;2023-04-24T10:44:54;-16572.88;;;14.50;100.00
3590;BME280;1809;48.470;9.226;2023-04-24T10:47:20;-16580.84;;;14.79;100.00
3590;BME280;1809;48.470;9.226;2023-04-24T10:49:46;-16588.00;;;15.04;100.00
3590;BME280;1809;48.470;9.226;2023-04-24T10:52:15;-16590.53;;;15.14;100.00
3590;BME280;1809;48.470;9.226;2023-04-24T10:54:44;-16556.88;;;13.92;100.00
3590;BME280;1809;48.470;9.226;2023-04-24T10:59:46;-16535.69;;;13.16;100.00
3590;BME280;1809;48.470;9.226;2023-04-24T11:02:14;-16533.59;;;13.09;100.00
3590;BME280;1809;48.470;9.226;2023-04-24T11:04:41;-16530.09;;;12.96;100.00
3590;BME280;1809;48.470;9.226;2023-04-24T11:07:08;-16518.16;;;12.53;100.00
3590;BME280;1809;48.470;9.226;2023-04-24T11:09:34;-16511.97;;;12.31;100.00
3590;BME280;1809;48.470;9.226;2023-04-24T11:12:06;-16509.44;;;12.22;100.00
3590;BME280;1809;48.470;9.226;2023-04-24T11:17:36;-16507.50;;;12.15;100.00
3590;BME280;1809;48.470;9.226;2023-04-24T11:20:16;-16510.84;;;12.27;100.00
3590;BME280;1809;48.470;9.226;2023-04-24T11:22:41;-16521.66;;;12.66;100.00
3590;BME280;1809;48.470;9.226;2023-04-24T11:25:07;-16527.13;;;12.85;100.00
3590;BME280;1809;48.470;9.226;2023-04-24T11:27:41;-16530.38;;;12.97;100.00
3590;BME280;1809;48.470;9.226;2023-04-24T11:30:07;-16538.94;;;13.28;100.00
3590;BME280;1809;48.470;9.226;2023-04-24T11:35:00;-16566.56;;;14.27;100.00
3590;BME280;1809;48.470;9.226;2023-04-24T11:37:37;-16552.09;;;13.75;100.00
3590;BME280;1809;48.470;9.226;2023-04-24T11:40:04;-16552.53;;;13.77;100.00
3590;BME280;1809;48.470;9.226;2023-04-24T11:42:39;-16554.91;;;13.85;100.00
3590;BME280;1809;48.470;9.226;2023-04-24T11:47:37;-16543.69;;;13.45;100.00
3590;BME280;1809;48.470;9.226;2023-04-24T11:50:05;-16536.69;;;13.20;100.00
3590;BME280;1809;48.470;9.226;2023-04-24T11:52:31;-16532.31;;;13.04;100.00
3590;BME280;1809;48.470;9.226;2023-04-24T11:54:59;-16525.72;;;12.80;100.00
3590;BME280;1809;48.470;9.226;2023-04-24T11:57:25;-16520.81;;;12.63;100.00
3590;BME280;1809;48.470;9.226;2023-04-24T11:59:54;-16519.28;;;12.57;100.00
3590;BME280;1809;48.470;9.226;2023-04-24T12:02:23;-16526.84;;;12.84;100.00
3590;BME280;1809;48.470;9.226;2023-04-24T12:04:49;-16528.81;;;12.91;100.00
3590;BME280;1809;48.470;9.226;2023-04-24T12:07:15;-16531.34;;;13.01;100.00
3590;BME280;1809;48.470;9.226;2023-04-24T12:12:07;-16521.81;;;12.66;100.00
3590;BME280;1809;48.470;9.226;2023-04-24T12:14:33;-16522.66;;;12.69;100.00
3590;BME280;1809;48.470;9.226;2023-04-24T12:17:06;-16519.84;;;12.59;100.00
3590;BME280;1809;48.470;9.226;2023-04-24T12:19:31;-16519.00;;;12.56;100.00
3590;BME280;1809;48.470;9.226;2023-04-24T12:22:01;-16518.56;;;12.55;100.00
3590;BME280;1809;48.470;9.226;2023-04-24T12:24:27;-16519.69;;;12.59;100.00
3590;BME280;1809;48.470;9.226;2023-04-24T12:26:52;-16517.31;;;12.50;100.00
3590;BME280;1809;48.470;9.226;2023-04-24T12:29:22;-16519.56;;;12.58;100.00
3590;BME280;1809;48.470;9.226;2023-04-24T12:31:48;-16518.44;;;12.54;100.00
3590;BME280;1809;48.470;9.226;2023-04-24T12:34:23;-16531.34;;;13.01;100.00
3590;BME280;1809;48.470;9.226;2023-04-24T12:36:50;-16533.44;;;13.08;100.00
3590;BME280;1809;48.470;9.226;2023-04-24T12:39:19;-16540.88;;;13.35;100.00
3590;BME280;1809;48.470;9.226;2023-04-24T12:41:55;-16544.25;;;13.47;100.00
3590;BME280;1809;48.470;9.226;2023-04-24T12:44:34;-16545.94;;;13.53;100.00
3590;BME280;1809;48.470;9.226;2023-04-24T12:47:00;-16540.88;;;13.35;100.00
3590;BME280;1809;48.470;9.226;2023-04-24T12:49:26;-16551.53;;;13.73;100.00
3590;BME280;1809;48.470;9.226;2023-04-24T12:51:51;-16552.25;;;13.76;100.00
3590;BME280;1809;48.470;9.226;2023-04-24T12:54:17;-16556.59;;;13.91;100.00
3590;BME280;1809;48.470;9.226;2023-04-24T12:56:42;-16557.16;;;13.93;100.00
3590;BME280;1809;48.470;9.226;2023-04-24T12:59:07;-16551.81;;;13.74;100.00
3590;BME280;1809;48.470;9.226;2023-04-24T13:01:32;-16552.66;;;13.77;100.00
3590;BME280;1809;48.470;9.226;2023-04-24T13:03:58;-16545.09;;;13.50;100.00
3590;BME280;1809;48.470;9.226;2023-04-24T13:06:23;-16538.94;;;13.28;100.00
3590;BME280;1809;48.470;9.226;2023-04-24T13:08:49;-16543.69;;;13.45;100.00
3590;BME280;1809;48.470;9.226;2023-04-24T13:11:14;-16552.09;;;13.75;100.00
3590;BME280;1809;48.470;9.226;2023-04-24T13:13:39;-16562.50;;;14.13;100.00